createdAt,value
2023-05-11T00:00:09.999Z,14.23
2023-05-11T00:02:37.542Z,9.07
2023-05-11T00:05:05.353Z,10.00
2023-05-11T00:07:32.808Z,11.63
2023-05-11T00:10:00.411Z,12.37
2023-05-11T00:12:27.818Z,9.23
2023-05-11T00:14:55.272Z,9.20
2023-05-11T00:17:22.759Z,18.23
2023-05-11T00:19:50.085Z,11.03
2023-05-11T00:22:17.460Z,8.67
2023-05-11T00:24:44.800Z,11.20
2023-05-11T00:27:12.195Z,8.80
2023-05-11T00:29:39.609Z,10.40
2023-05-11T00:32:06.971Z,13.53
2023-05-11T00:34:34.389Z,10.77
2023-05-11T00:37:01.786Z,15.40
2023-05-11T00:39:29.224Z,9.97
2023-05-11T00:41:56.609Z,8.90
2023-05-11T00:44:24.006Z,11.37
2023-05-11T00:46:51.514Z,10.33
2023-05-11T00:49:20.608Z,11.80
2023-05-11T00:51:47.988Z,15.00
2023-05-11T00:54:15.700Z,10.70
2023-05-11T00:56:43.044Z,12.00
2023-05-11T00:59:10.435Z,9.50
2023-05-11T01:01:40.494Z,11.07
2023-05-11T01:04:08.306Z,11.90
2023-05-11T01:06:44.539Z,11.53
2023-05-11T01:09:16.502Z,11.40
2023-05-11T01:11:45.815Z,10.20
2023-05-11T01:14:15.119Z,10.70
2023-05-11T01:16:44.091Z,11.77
2023-05-11T01:19:21.937Z,12.03
2023-05-11T01:21:51.289Z,9.70
2023-05-11T01:24:22.926Z,10.77
2023-05-11T01:27:08.721Z,8.60
2023-05-11T01:29:43.402Z,12.03
2023-05-11T01:32:12.392Z,11.63
2023-05-11T01:34:40.292Z,9.83
2023-05-11T01:37:11.909Z,9.00
2023-05-11T01:39:40.903Z,12.57
2023-05-11T01:42:09.810Z,9.83
2023-05-11T01:44:40.341Z,11.43
2023-05-11T01:47:08.624Z,10.50
2023-05-11T01:49:38.847Z,22.93
2023-05-11T01:52:07.930Z,8.50
2023-05-11T01:54:36.494Z,10.80
2023-05-11T01:57:04.244Z,9.93
2023-05-11T01:59:32.489Z,11.70
2023-05-11T02:02:00.922Z,10.33
2023-05-11T02:04:29.548Z,10.10
2023-05-11T02:06:57.614Z,20.00
2023-05-11T02:09:25.526Z,11.40
2023-05-11T02:11:54.182Z,8.73
2023-05-11T02:14:21.969Z,23.03
2023-05-11T02:16:50.645Z,10.43
2023-05-11T02:19:18.527Z,10.40
2023-05-11T02:21:46.887Z,11.30
2023-05-11T02:24:15.354Z,10.70
2023-05-11T02:26:43.058Z,12.83
2023-05-11T02:29:10.384Z,14.17
2023-05-11T02:31:39.407Z,8.97
2023-05-11T02:34:15.760Z,10.67
2023-05-11T02:36:43.933Z,10.70
2023-05-11T02:39:12.920Z,9.57
2023-05-11T02:41:41.816Z,10.97
2023-05-11T02:44:10.497Z,12.70
2023-05-11T02:46:38.993Z,9.80
2023-05-11T02:49:08.593Z,9.67
2023-05-11T02:51:37.695Z,10.60
2023-05-11T02:54:06.984Z,12.33
2023-05-11T02:56:34.397Z,11.73
2023-05-11T02:59:02.156Z,10.17
2023-05-11T03:01:30.594Z,13.90
2023-05-11T03:03:58.483Z,14.10
2023-05-11T03:06:26.081Z,10.73
2023-05-11T03:08:53.480Z,10.87
2023-05-11T03:11:22.024Z,11.47
2023-05-11T03:13:50.162Z,12.67
2023-05-11T03:16:20.940Z,11.53
2023-05-11T03:18:48.507Z,9.47
2023-05-11T03:21:16.638Z,10.10
2023-05-11T03:23:45.772Z,9.17
2023-05-11T03:26:13.558Z,10.83
2023-05-11T03:28:41.945Z,14.43
2023-05-11T03:31:09.410Z,10.80
2023-05-11T03:33:36.809Z,10.90
2023-05-11T03:36:05.471Z,13.60
2023-05-11T03:38:32.865Z,18.43
2023-05-11T03:41:01.327Z,12.33
2023-05-11T03:43:30.977Z,11.20
2023-05-11T03:45:58.605Z,12.80
2023-05-11T03:48:26.095Z,13.23
2023-05-11T03:50:53.679Z,11.77
2023-05-11T03:53:21.249Z,16.70
2023-05-11T03:55:49.847Z,11.43
2023-05-11T03:58:17.319Z,12.83
2023-05-11T04:00:45.161Z,14.73
2023-05-11T04:03:12.634Z,11.40
2023-05-11T04:05:41.220Z,13.60
2023-05-11T04:08:08.786Z,10.70
2023-05-11T04:10:36.177Z,21.23
2023-05-11T04:13:03.845Z,13.73
2023-05-11T04:15:31.315Z,18.17
2023-05-11T04:17:58.817Z,16.53
2023-05-11T04:20:26.481Z,13.73
2023-05-11T04:22:54.460Z,15.13
2023-05-11T04:25:21.856Z,16.40
2023-05-11T04:27:49.232Z,18.90
2023-05-11T04:30:17.096Z,27.07
2023-05-11T04:32:44.751Z,17.90
2023-05-11T04:35:12.213Z,16.83
2023-05-11T04:37:39.668Z,19.07
2023-05-11T04:40:07.559Z,16.10
2023-05-11T04:42:34.962Z,15.07
2023-05-11T04:45:02.329Z,19.90
2023-05-11T04:47:29.849Z,18.30
2023-05-11T04:49:57.213Z,18.30
2023-05-11T04:52:24.549Z,18.43
2023-05-11T04:54:52.854Z,16.47
2023-05-11T04:57:20.248Z,15.93
2023-05-11T04:59:47.783Z,15.83
2023-05-11T05:02:15.173Z,17.57
2023-05-11T05:04:53.095Z,21.30
2023-05-11T05:07:20.471Z,20.83
2023-05-11T05:09:47.889Z,20.10
2023-05-11T05:12:15.494Z,18.27
2023-05-11T05:14:42.837Z,19.73
2023-05-11T05:17:10.340Z,20.30
2023-05-11T05:19:37.797Z,18.73
2023-05-11T05:22:05.392Z,16.47
2023-05-11T05:24:32.834Z,17.30
2023-05-11T05:27:00.237Z,20.30
2023-05-11T05:29:27.650Z,18.90
2023-05-11T05:31:55.123Z,17.20
2023-05-11T05:34:22.446Z,17.63
2023-05-11T05:36:49.855Z,15.97
2023-05-11T05:39:17.271Z,19.73
2023-05-11T05:41:44.684Z,17.57
2023-05-11T05:44:12.098Z,14.93
2023-05-11T05:46:39.551Z,15.67
2023-05-11T05:49:06.967Z,17.03
2023-05-11T05:51:34.422Z,17.33
2023-05-11T05:54:01.818Z,14.77
2023-05-11T05:56:29.225Z,14.47
2023-05-11T05:58:56.779Z,15.13
2023-05-11T06:01:24.190Z,18.43
2023-05-11T06:03:52.052Z,15.00
2023-05-11T06:06:19.641Z,16.50
2023-05-11T06:08:47.047Z,14.97
2023-05-11T06:11:15.517Z,15.80
2023-05-11T06:13:42.918Z,15.17
2023-05-11T06:16:10.515Z,14.43
2023-05-11T06:18:37.959Z,13.23
2023-05-11T06:21:05.339Z,15.33
2023-05-11T06:23:32.747Z,20.83
2023-05-11T06:26:00.331Z,13.73
2023-05-11T06:28:27.669Z,14.70
2023-05-11T06:30:58.480Z,16.30
2023-05-11T06:33:26.171Z,13.47
2023-05-11T06:35:54.502Z,13.90
2023-05-11T06:38:21.909Z,14.63
2023-05-11T06:40:50.827Z,14.03
2023-05-11T06:43:18.246Z,14.90
2023-05-11T06:45:45.876Z,14.90
2023-05-11T06:48:13.607Z,14.20
2023-05-11T06:50:40.980Z,16.63
2023-05-11T06:53:10.033Z,17.97
2023-05-11T06:55:37.787Z,13.50
2023-05-11T06:58:05.206Z,13.70
2023-05-11T07:00:32.585Z,12.27
2023-05-11T07:03:00.040Z,12.33
2023-05-11T07:05:27.855Z,13.37
2023-05-11T07:07:55.269Z,13.60
2023-05-11T07:10:22.705Z,13.50
2023-05-11T07:12:50.316Z,12.23
2023-05-11T07:15:17.771Z,14.60
2023-05-11T07:17:46.844Z,13.93
2023-05-11T07:20:14.207Z,12.77
2023-05-11T07:22:41.612Z,15.07
2023-05-11T07:25:11.690Z,13.80
2023-05-11T07:27:39.102Z,13.80
2023-05-11T07:30:06.936Z,14.50
2023-05-11T07:32:34.546Z,16.80
2023-05-11T07:35:01.920Z,14.70
2023-05-11T07:37:29.315Z,12.87
2023-05-11T07:39:56.690Z,16.20
2023-05-11T07:42:24.130Z,15.30
2023-05-11T07:44:52.372Z,15.07
2023-05-11T07:47:20.824Z,15.13
2023-05-11T07:49:48.400Z,15.20
2023-05-11T07:52:15.989Z,16.37
2023-05-11T07:54:43.372Z,15.13
2023-05-11T07:57:12.661Z,20.23
2023-05-11T07:59:42.204Z,15.10
2023-05-11T08:02:11.583Z,18.93
2023-05-11T08:04:39.240Z,14.83
2023-05-11T08:07:06.803Z,17.27
2023-05-11T08:09:34.294Z,17.33
2023-05-11T08:12:02.045Z,15.30
2023-05-11T08:14:29.447Z,15.83
2023-05-11T08:16:56.866Z,14.50
2023-05-11T08:19:24.266Z,16.60
2023-05-11T08:21:51.692Z,13.30
2023-05-11T08:24:19.072Z,17.53
2023-05-11T08:26:47.058Z,14.70
2023-05-11T08:29:14.462Z,13.67
2023-05-11T08:31:41.885Z,12.30
2023-05-11T08:34:18.699Z,12.17
2023-05-11T08:36:38.436Z,13.30
2023-05-11T08:39:06.141Z,12.00
2023-05-11T08:41:33.564Z,12.53
2023-05-11T08:44:01.287Z,12.50
2023-05-11T08:46:29.964Z,12.00
2023-05-11T08:48:58.445Z,13.50
2023-05-11T08:51:28.090Z,12.87
2023-05-11T08:53:57.136Z,18.83
2023-05-11T08:56:26.325Z,12.50
2023-05-11T08:58:56.584Z,14.10
2023-05-11T09:01:24.611Z,13.00
2023-05-11T09:03:52.193Z,13.83
2023-05-11T09:06:20.484Z,13.40
2023-05-11T09:08:48.133Z,15.80
2023-05-11T09:11:15.618Z,11.77
2023-05-11T09:13:43.084Z,13.03
2023-05-11T09:16:23.666Z,12.53
2023-05-11T09:18:53.060Z,11.57
2023-05-11T09:21:20.780Z,12.47
2023-05-11T09:23:51.958Z,13.20
2023-05-11T09:26:24.317Z,11.73
2023-05-11T09:29:02.340Z,12.10
2023-05-11T09:31:32.884Z,12.87
2023-05-11T09:34:14.085Z,12.57
2023-05-11T09:36:42.547Z,12.70
2023-05-11T09:39:15.516Z,13.40
2023-05-11T09:41:39.084Z,12.60
2023-05-11T09:44:08.962Z,12.57
2023-05-11T09:46:36.957Z,13.23
2023-05-11T09:49:04.324Z,14.10
2023-05-11T09:51:32.887Z,12.93
2023-05-11T09:54:02.362Z,12.67
2023-05-11T09:56:39.995Z,14.27
2023-05-11T09:59:07.456Z,12.23
2023-05-11T10:01:36.989Z,13.13
2023-05-11T10:04:13.911Z,12.77
2023-05-11T10:06:35.070Z,13.83
2023-05-11T10:09:04.072Z,11.70
2023-05-11T10:11:31.437Z,13.63
2023-05-11T10:13:59.198Z,12.17
2023-05-11T10:16:26.760Z,12.47
2023-05-11T10:18:54.259Z,12.53
2023-05-11T10:21:22.274Z,11.27
2023-05-11T10:23:49.938Z,12.10
2023-05-11T10:26:17.433Z,12.27
2023-05-11T10:28:44.839Z,12.80
2023-05-11T10:31:12.888Z,16.20
2023-05-11T10:33:40.873Z,16.93
2023-05-11T10:36:08.829Z,12.50
2023-05-11T10:38:36.990Z,12.47
2023-05-11T10:41:05.944Z,13.50
2023-05-11T10:43:42.409Z,13.53
2023-05-11T10:46:30.368Z,13.63
2023-05-11T10:48:58.827Z,13.40
2023-05-11T10:51:34.076Z,12.60
2023-05-11T10:54:20.983Z,14.27
2023-05-11T10:57:06.943Z,14.03
2023-05-11T10:59:41.964Z,12.40
2023-05-11T11:02:09.997Z,12.90
2023-05-11T11:04:44.850Z,13.30
2023-05-11T11:07:13.888Z,14.10
2023-05-11T11:09:51.367Z,11.40
2023-05-11T11:12:19.324Z,10.90
2023-05-11T11:14:57.582Z,13.27
2023-05-11T11:17:27.444Z,11.67
2023-05-11T11:19:55.513Z,12.20
2023-05-11T11:22:38.199Z,12.50
2023-05-11T11:25:07.578Z,10.93
2023-05-11T11:27:42.724Z,12.23
2023-05-11T11:30:20.907Z,11.17
2023-05-11T11:32:49.504Z,10.77
2023-05-11T11:35:35.140Z,12.13
2023-05-11T11:38:03.470Z,10.83
2023-05-11T11:40:47.219Z,12.33
2023-05-11T11:43:18.349Z,10.50
2023-05-11T11:45:53.143Z,10.70
2023-05-11T11:48:24.658Z,11.10
2023-05-11T11:50:53.555Z,11.70
2023-05-11T11:53:45.200Z,11.30
2023-05-11T11:56:17.269Z,11.50
2023-05-11T11:58:46.430Z,12.77
2023-05-11T12:01:14.859Z,11.60
2023-05-11T12:03:43.889Z,9.67
2023-05-11T12:06:12.426Z,11.37
2023-05-11T12:08:40.641Z,11.13
2023-05-11T12:11:09.702Z,11.03
2023-05-11T12:13:37.282Z,15.40
2023-05-11T12:16:18.670Z,10.80
2023-05-11T12:18:53.887Z,12.03
2023-05-11T12:21:21.890Z,11.27
2023-05-11T12:23:54.680Z,14.43
2023-05-11T12:26:23.303Z,11.30
2023-05-11T12:28:51.498Z,10.70
2023-05-11T12:31:19.167Z,10.90
2023-05-11T12:33:47.544Z,10.33
2023-05-11T12:36:16.067Z,10.40
2023-05-11T12:38:44.528Z,9.90
2023-05-11T12:41:11.912Z,10.93
2023-05-11T12:43:39.297Z,11.33
2023-05-11T12:46:06.737Z,11.60
2023-05-11T12:48:35.176Z,10.23
2023-05-11T12:51:03.507Z,12.07
2023-05-11T12:53:32.450Z,11.33
2023-05-11T12:55:59.863Z,11.43
2023-05-11T12:58:27.331Z,11.37
2023-05-11T13:00:55.787Z,10.37
2023-05-11T13:03:27.689Z,10.80
2023-05-11T13:06:09.010Z,12.20
2023-05-11T13:08:38.017Z,10.93
2023-05-11T13:11:25.568Z,14.90
2023-05-11T13:13:53.778Z,10.77
2023-05-11T13:16:28.746Z,10.90
2023-05-11T13:18:59.836Z,11.87
2023-05-11T13:21:29.031Z,10.70
2023-05-11T13:23:56.706Z,10.83
2023-05-11T13:26:25.820Z,10.60
2023-05-11T13:29:08.559Z,13.17
2023-05-11T13:31:22.531Z,10.87
2023-05-11T13:33:53.028Z,11.57
2023-05-11T13:36:20.409Z,12.00
2023-05-11T13:38:47.814Z,10.17
2023-05-11T13:41:15.224Z,9.97
2023-05-11T13:43:42.626Z,13.47
2023-05-11T13:46:10.086Z,11.60
2023-05-11T13:48:37.479Z,10.90
2023-05-11T13:51:04.806Z,10.70
2023-05-11T13:53:32.294Z,11.37
2023-05-11T13:55:59.700Z,11.00
2023-05-11T13:58:27.073Z,10.10
2023-05-11T14:01:07.328Z,10.30
2023-05-11T14:03:23.745Z,12.03
2023-05-11T14:05:51.323Z,10.50
2023-05-11T14:08:18.698Z,11.03
2023-05-11T14:10:46.248Z,12.33
2023-05-11T14:13:13.649Z,11.27
2023-05-11T14:15:41.047Z,11.50
2023-05-11T14:18:08.760Z,11.40
2023-05-11T14:20:37.819Z,18.00
2023-05-11T14:23:05.194Z,12.00
2023-05-11T14:25:32.640Z,16.70
2023-05-11T14:28:00.199Z,11.80
2023-05-11T14:30:27.590Z,13.27
2023-05-11T14:32:55.659Z,13.30
2023-05-11T14:35:23.186Z,13.60
2023-05-11T14:37:50.582Z,13.33
2023-05-11T14:40:18.059Z,13.43
2023-05-11T14:42:45.465Z,13.80
2023-05-11T14:45:12.855Z,17.20
2023-05-11T14:47:40.362Z,14.73
2023-05-11T14:50:08.398Z,16.17
2023-05-11T14:52:35.780Z,17.87
2023-05-11T14:55:03.193Z,19.33
2023-05-11T14:57:30.658Z,20.00
2023-05-11T14:59:59.434Z,18.27
2023-05-11T15:02:27.399Z,19.50
2023-05-11T15:04:55.492Z,21.93
2023-05-11T15:07:22.842Z,22.57
2023-05-11T15:09:50.720Z,20.57
2023-05-11T15:12:18.131Z,21.10
2023-05-11T15:14:45.872Z,19.33
2023-05-11T15:17:13.271Z,18.90
2023-05-11T15:19:40.769Z,19.53
2023-05-11T15:22:08.404Z,18.57
2023-05-11T15:24:35.825Z,20.53
2023-05-11T15:27:03.269Z,19.53
2023-05-11T15:29:30.748Z,19.50
2023-05-11T15:31:58.171Z,17.20
2023-05-11T15:34:25.533Z,17.20
2023-05-11T15:36:52.938Z,16.17
2023-05-11T15:39:20.356Z,20.30
2023-05-11T15:41:47.746Z,14.93
2023-05-11T15:44:15.152Z,16.30
2023-05-11T15:46:42.560Z,14.60
2023-05-11T15:49:09.980Z,14.20
2023-05-11T15:51:37.372Z,14.90
2023-05-11T15:54:04.773Z,13.83
2023-05-11T15:56:32.442Z,14.57
2023-05-11T15:58:59.840Z,16.63
2023-05-11T16:01:27.373Z,14.37
2023-05-11T16:03:56.775Z,14.63
2023-05-11T16:06:24.134Z,16.43
2023-05-11T16:08:52.816Z,16.57
2023-05-11T16:11:21.267Z,16.00
2023-05-11T16:14:02.263Z,15.47
2023-05-11T16:16:30.505Z,17.60
2023-05-11T16:18:58.935Z,17.17
2023-05-11T16:21:28.331Z,16.97
2023-05-11T16:23:56.181Z,16.90
2023-05-11T16:26:23.889Z,17.17
2023-05-11T16:28:51.440Z,18.50
2023-05-11T16:31:18.874Z,18.30
2023-05-11T16:33:46.319Z,17.23
2023-05-11T16:36:13.919Z,21.23
2023-05-11T16:38:41.454Z,18.07
2023-05-11T16:41:09.005Z,19.70
2023-05-11T16:43:38.554Z,19.10
2023-05-11T16:46:07.382Z,19.80
2023-05-11T16:48:35.297Z,16.47
2023-05-11T16:51:03.302Z,18.30
2023-05-11T16:53:31.590Z,18.37
2023-05-11T16:55:59.055Z,20.70
2023-05-11T16:58:26.479Z,21.17
2023-05-11T17:00:53.877Z,22.47
2023-05-11T17:03:21.299Z,21.13
2023-05-11T17:05:49.306Z,22.73
2023-05-11T17:08:17.392Z,19.20
2023-05-11T17:10:46.056Z,19.47
2023-05-11T17:13:13.556Z,20.70
2023-05-11T17:15:41.093Z,22.10
2023-05-11T17:18:10.330Z,20.97
2023-05-11T17:20:38.026Z,24.47
2023-05-11T17:23:05.552Z,21.23
2023-05-11T17:25:33.174Z,21.30
2023-05-11T17:28:00.831Z,20.30
2023-05-11T17:30:39.935Z,19.73
2023-05-11T17:32:57.455Z,22.03
2023-05-11T17:35:25.024Z,23.03
2023-05-11T17:37:52.415Z,21.90
2023-05-11T17:40:20.034Z,20.93
2023-05-11T17:42:47.873Z,21.37
2023-05-11T17:45:16.284Z,22.63
2023-05-11T17:47:43.746Z,23.67
2023-05-11T17:50:11.293Z,30.73
2023-05-11T17:52:38.694Z,23.37
2023-05-11T17:55:06.609Z,28.53
2023-05-11T17:57:33.997Z,23.47
2023-05-11T18:00:01.417Z,23.80
2023-05-11T18:02:28.937Z,20.97
2023-05-11T18:04:56.590Z,21.67
2023-05-11T18:07:24.044Z,24.80
2023-05-11T18:09:51.448Z,22.90
2023-05-11T18:12:19.811Z,27.43
2023-05-11T18:14:47.240Z,27.20
2023-05-11T18:17:14.814Z,25.40
2023-05-11T18:19:42.709Z,23.83
2023-05-11T18:22:10.455Z,23.53
2023-05-11T18:24:37.808Z,24.00
2023-05-11T18:27:05.263Z,27.03
2023-05-11T18:29:32.755Z,25.27
2023-05-11T18:32:00.244Z,27.30
2023-05-11T18:34:27.752Z,26.73
2023-05-11T18:36:55.219Z,26.13
2023-05-11T18:39:22.602Z,23.23
2023-05-11T18:41:50.359Z,27.50
2023-05-11T18:44:19.071Z,24.10
2023-05-11T18:46:46.518Z,23.57
2023-05-11T18:49:13.988Z,25.93
2023-05-11T18:51:41.469Z,27.80
2023-05-11T18:54:08.875Z,26.83
2023-05-11T18:56:36.352Z,22.60
2023-05-11T18:59:03.821Z,21.53
2023-05-11T19:01:46.434Z,25.73
2023-05-11T19:04:00.939Z,20.20
2023-05-11T19:06:28.324Z,21.50
2023-05-11T19:08:56.185Z,21.83
2023-05-11T19:11:23.641Z,20.30
2023-05-11T19:13:51.107Z,26.17
2023-05-11T19:16:20.414Z,19.53
2023-05-11T19:18:47.836Z,19.53
2023-05-11T19:21:15.343Z,20.13
2023-05-11T19:23:42.731Z,19.23
2023-05-11T19:26:10.129Z,25.70
2023-05-11T19:28:37.540Z,19.37
2023-05-11T19:31:06.067Z,19.37
2023-05-11T19:33:33.542Z,19.00
2023-05-11T19:36:00.880Z,17.50
2023-05-11T19:38:28.310Z,17.60
2023-05-11T19:40:55.984Z,17.53
2023-05-11T19:43:24.206Z,17.47
2023-05-11T19:45:51.629Z,21.87
2023-05-11T19:48:19.069Z,19.23
2023-05-11T19:50:47.800Z,19.03
2023-05-11T19:53:15.594Z,20.90
2023-05-11T19:55:44.886Z,18.73
2023-05-11T19:58:12.739Z,16.40
2023-05-11T20:00:41.180Z,17.50
2023-05-11T20:03:08.760Z,20.37
2023-05-11T20:05:36.519Z,17.50
2023-05-11T20:08:05.552Z,18.43
2023-05-11T20:10:33.467Z,18.27
2023-05-11T20:13:02.497Z,20.20
2023-05-11T20:15:31.014Z,19.87
2023-05-11T20:17:58.808Z,17.53
2023-05-11T20:20:26.167Z,24.07
2023-05-11T20:22:53.573Z,18.60
2023-05-11T20:25:21.390Z,20.23
2023-05-11T20:27:48.784Z,23.70
2023-05-11T20:30:16.297Z,21.40
2023-05-11T20:35:13.263Z,23.57
2023-05-11T20:37:40.650Z,19.37
2023-05-11T20:40:09.579Z,23.10
2023-05-11T20:42:38.627Z,21.60
2023-05-11T20:45:07.647Z,24.50
2023-05-11T20:47:35.129Z,22.13
2023-05-11T20:50:02.720Z,19.80
2023-05-11T20:52:30.378Z,21.60
2023-05-11T20:54:57.777Z,19.50
2023-05-11T20:57:25.214Z,22.77
2023-05-11T21:02:21.686Z,22.80
2023-05-11T21:04:49.216Z,19.53
2023-05-11T21:07:16.594Z,22.10
2023-05-11T21:09:44.599Z,22.33
2023-05-11T21:12:12.057Z,20.47
2023-05-11T21:14:39.735Z,26.00
2023-05-11T21:17:07.199Z,21.37
2023-05-11T21:19:34.647Z,19.60
2023-05-11T21:22:02.042Z,17.60
2023-05-11T21:24:29.605Z,20.63
2023-05-11T21:26:56.994Z,20.30
2023-05-11T21:29:24.578Z,22.77
2023-05-11T21:31:52.819Z,19.53
2023-05-11T21:34:20.235Z,24.40
2023-05-11T21:36:47.606Z,21.40
2023-05-11T21:39:14.933Z,18.13
2023-05-11T21:41:42.332Z,23.23
2023-05-11T21:44:09.751Z,22.50
2023-05-11T21:46:37.176Z,26.73
2023-05-11T21:49:04.543Z,22.33
2023-05-11T21:51:32.853Z,27.03
2023-05-11T21:54:00.921Z,23.07
2023-05-11T21:56:28.300Z,22.13
2023-05-11T21:58:55.623Z,21.87
2023-05-11T22:01:23.027Z,27.70
2023-05-11T22:03:50.747Z,28.30
2023-05-11T22:06:18.261Z,24.10
2023-05-11T22:08:46.131Z,23.43
2023-05-11T22:11:13.596Z,21.70
2023-05-11T22:13:41.094Z,19.93
2023-05-11T22:16:08.506Z,22.73
2023-05-11T22:18:35.952Z,25.10
2023-05-11T22:21:03.355Z,22.67
2023-05-11T22:23:31.638Z,21.30
2023-05-11T22:25:59.045Z,21.00
2023-05-11T22:28:26.438Z,20.10
2023-05-11T22:30:53.810Z,23.03
2023-05-11T22:33:21.215Z,19.43
2023-05-11T22:35:48.633Z,19.90
2023-05-11T22:38:16.084Z,22.03
2023-05-11T22:40:43.485Z,21.60
2023-05-11T22:43:10.903Z,27.83
2023-05-11T22:45:38.313Z,18.77
2023-05-11T22:48:06.453Z,20.47
2023-05-11T22:50:33.821Z,21.20
2023-05-11T22:53:01.202Z,22.90
2023-05-11T22:55:28.802Z,23.10
2023-05-11T22:57:56.244Z,20.20
2023-05-11T23:00:23.648Z,21.80
2023-05-11T23:02:51.425Z,21.07
2023-05-11T23:05:18.817Z,23.27
2023-05-11T23:07:46.226Z,25.27
2023-05-11T23:10:13.609Z,21.83
2023-05-11T23:12:41.002Z,22.10
2023-05-11T23:15:09.546Z,20.93
2023-05-11T23:17:37.013Z,26.27
2023-05-11T23:20:04.655Z,34.77
2023-05-11T23:22:32.437Z,25.23
2023-05-11T23:25:00.401Z,24.73
2023-05-11T23:27:28.388Z,30.90
2023-05-11T23:29:55.786Z,28.60
2023-05-11T23:32:23.196Z,26.57
2023-05-11T23:34:50.572Z,26.93
2023-05-11T23:37:17.910Z,24.60
2023-05-11T23:39:45.303Z,33.30
2023-05-11T23:42:12.720Z,29.17
2023-05-11T23:44:40.584Z,25.60
2023-05-11T23:47:08.045Z,24.47
2023-05-11T23:49:35.861Z,23.47
2023-05-11T23:52:03.355Z,23.50
2023-05-11T23:54:30.731Z,19.87
2023-05-11T23:56:59.498Z,22.80
2023-05-11T23:59:26.920Z,21.23
